sensor_id;sensor_type;location;lat;lon;timestamp;temperature;humidity
54938;DHT22;52756;52.826;6.214;2023-04-03T00:01:09;3.90;62.90
54938;DHT22;52756;52.826;6.214;2023-04-03T00:03:36;3.80;63.00
54938;DHT22;52756;52.826;6.214;2023-04-03T00:06:03;3.80;63.10
54938;DHT22;52756;52.826;6.214;2023-04-03T00:08:29;3.80;63.20
54938;DHT22;52756;52.826;6.214;2023-04-03T00:10:58;3.80;63.40
54938;DHT22;52756;52.826;6.214;2023-04-03T00:13:24;3.80;63.50
54938;DHT22;52756;52.826;6.214;2023-04-03T00:15:51;3.80;63.40
54938;DHT22;52756;52.826;6.214;2023-04-03T00:18:17;3.70;63.40
54938;DHT22;52756;52.826;6.214;2023-04-03T00:20:43;3.70;63.30
54938;DHT22;52756;52.826;6.214;2023-04-03T00:23:09;3.70;63.30
54938;DHT22;52756;52.826;6.214;2023-04-03T00:25:35;3.70;63.40
54938;DHT22;52756;52.826;6.214;2023-04-03T00:28:01;3.70;63.40
54938;DHT22;52756;52.826;6.214;2023-04-03T00:30:26;3.60;63.50
54938;DHT22;52756;52.826;6.214;2023-04-03T00:32:52;3.60;63.60
54938;DHT22;52756;52.826;6.214;2023-04-03T00:35:19;3.60;63.60
54938;DHT22;52756;52.826;6.214;2023-04-03T00:37:45;3.60;63.70
54938;DHT22;52756;52.826;6.214;2023-04-03T00:40:14;3.60;63.90
54938;DHT22;52756;52.826;6.214;2023-04-03T00:42:41;3.50;63.90
54938;DHT22;52756;52.826;6.214;2023-04-03T00:45:29;3.60;63.90
54938;DHT22;52756;52.826;6.214;2023-04-03T00:47:56;3.50;64.20
54938;DHT22;52756;52.826;6.214;2023-04-03T00:50:22;3.50;64.70
54938;DHT22;52756;52.826;6.214;2023-04-03T00:52:48;3.50;64.90
54938;DHT22;52756;52.826;6.214;2023-04-03T00:55:15;3.50;64.80
54938;DHT22;52756;52.826;6.214;2023-04-03T00:57:42;3.50;64.70
54938;DHT22;52756;52.826;6.214;2023-04-03T01:00:11;3.60;64.60
54938;DHT22;52756;52.826;6.214;2023-04-03T01:02:37;3.50;64.90
54938;DHT22;52756;52.826;6.214;2023-04-03T01:05:06;3.50;64.80
54938;DHT22;52756;52.826;6.214;2023-04-03T01:07:33;3.50;64.90
54938;DHT22;52756;52.826;6.214;2023-04-03T01:10:05;3.60;65.10
54938;DHT22;52756;52.826;6.214;2023-04-03T01:12:37;3.50;64.90
54938;DHT22;52756;52.826;6.214;2023-04-03T01:15:24;3.50;64.80
54938;DHT22;52756;52.826;6.214;2023-04-03T01:17:53;3.50;64.90
54938;DHT22;52756;52.826;6.214;2023-04-03T01:20:35;3.50;65.20
54938;DHT22;52756;52.826;6.214;2023-04-03T01:25:49;3.50;64.50
54938;DHT22;52756;52.826;6.214;2023-04-03T01:28:25;3.40;64.50
54938;DHT22;52756;52.826;6.214;2023-04-03T01:33:37;3.30;64.40
54938;DHT22;52756;52.826;6.214;2023-04-03T01:36:03;3.30;64.40
54938;DHT22;52756;52.826;6.214;2023-04-03T01:38:29;3.30;64.60
54938;DHT22;52756;52.826;6.214;2023-04-03T01:40:55;3.20;64.60
54938;DHT22;52756;52.826;6.214;2023-04-03T01:43:21;3.20;64.70
54938;DHT22;52756;52.826;6.214;2023-04-03T01:45:46;3.10;64.80
54938;DHT22;52756;52.826;6.214;2023-04-03T01:48:14;3.10;64.90
54938;DHT22;52756;52.826;6.214;2023-04-03T01:50:41;3.10;65.00
54938;DHT22;52756;52.826;6.214;2023-04-03T01:53:06;3.00;64.90
54938;DHT22;52756;52.826;6.214;2023-04-03T01:55:32;3.00;65.00
54938;DHT22;52756;52.826;6.214;2023-04-03T01:57:58;2.90;65.10
54938;DHT22;52756;52.826;6.214;2023-04-03T02:00:24;2.90;65.40
54938;DHT22;52756;52.826;6.214;2023-04-03T02:02:50;2.80;65.60
54938;DHT22;52756;52.826;6.214;2023-04-03T02:05:15;2.80;65.90
54938;DHT22;52756;52.826;6.214;2023-04-03T02:07:41;2.80;65.90
54938;DHT22;52756;52.826;6.214;2023-04-03T02:10:07;2.80;66.00
54938;DHT22;52756;52.826;6.214;2023-04-03T02:12:33;2.70;66.10
54938;DHT22;52756;52.826;6.214;2023-04-03T02:14:58;2.70;66.20
54938;DHT22;52756;52.826;6.214;2023-04-03T02:17:24;2.70;66.30
54938;DHT22;52756;52.826;6.214;2023-04-03T02:19:50;2.60;66.30
54938;DHT22;52756;52.826;6.214;2023-04-03T02:22:16;2.60;66.50
54938;DHT22;52756;52.826;6.214;2023-04-03T02:24:41;2.60;66.60
54938;DHT22;52756;52.826;6.214;2023-04-03T02:27:08;2.60;66.90
54938;DHT22;52756;52.826;6.214;2023-04-03T02:29:33;2.50;67.00
54938;DHT22;52756;52.826;6.214;2023-04-03T02:31:59;2.50;67.10
54938;DHT22;52756;52.826;6.214;2023-04-03T02:34:25;2.50;67.20
54938;DHT22;52756;52.826;6.214;2023-04-03T02:36:50;2.50;67.20
54938;DHT22;52756;52.826;6.214;2023-04-03T02:39:16;2.50;67.30
54938;DHT22;52756;52.826;6.214;2023-04-03T02:41:42;2.50;67.30
54938;DHT22;52756;52.826;6.214;2023-04-03T02:44:10;2.40;67.30
54938;DHT22;52756;52.826;6.214;2023-04-03T02:46:36;2.40;67.40
54938;DHT22;52756;52.826;6.214;2023-04-03T02:49:02;2.40;67.60
54938;DHT22;52756;52.826;6.214;2023-04-03T02:51:28;2.40;67.80
54938;DHT22;52756;52.826;6.214;2023-04-03T02:53:54;2.30;67.80
54938;DHT22;52756;52.826;6.214;2023-04-03T02:56:20;2.30;68.00
54938;DHT22;52756;52.826;6.214;2023-04-03T02:58:46;2.30;68.10
54938;DHT22;52756;52.826;6.214;2023-04-03T03:01:12;2.30;68.30
54938;DHT22;52756;52.826;6.214;2023-04-03T03:03:38;2.20;68.40
54938;DHT22;52756;52.826;6.214;2023-04-03T03:06:05;2.20;68.60
54938;DHT22;52756;52.826;6.214;2023-04-03T03:08:32;2.20;68.80
54938;DHT22;52756;52.826;6.214;2023-04-03T03:10:58;2.10;68.80
54938;DHT22;52756;52.826;6.214;2023-04-03T03:13:24;2.10;68.90
54938;DHT22;52756;52.826;6.214;2023-04-03T03:15:50;2.10;68.90
54938;DHT22;52756;52.826;6.214;2023-04-03T03:18:16;2.10;69.20
54938;DHT22;52756;52.826;6.214;2023-04-03T03:20:42;2.10;69.20
54938;DHT22;52756;52.826;6.214;2023-04-03T03:23:07;2.00;69.30
54938;DHT22;52756;52.826;6.214;2023-04-03T03:25:33;2.00;69.50
54938;DHT22;52756;52.826;6.214;2023-04-03T03:28:02;2.00;69.60
54938;DHT22;52756;52.826;6.214;2023-04-03T03:30:28;2.00;69.60
54938;DHT22;52756;52.826;6.214;2023-04-03T03:32:54;2.00;69.80
54938;DHT22;52756;52.826;6.214;2023-04-03T03:35:19;2.00;69.80
54938;DHT22;52756;52.826;6.214;2023-04-03T03:37:45;2.00;69.80
54938;DHT22;52756;52.826;6.214;2023-04-03T03:40:11;2.00;69.90
54938;DHT22;52756;52.826;6.214;2023-04-03T03:42:38;2.00;69.90
54938;DHT22;52756;52.826;6.214;2023-04-03T03:45:04;1.90;69.90
54938;DHT22;52756;52.826;6.214;2023-04-03T03:47:30;1.90;70.00
54938;DHT22;52756;52.826;6.214;2023-04-03T03:49:56;1.90;70.40
54938;DHT22;52756;52.826;6.214;2023-04-03T03:52:22;2.00;70.80
54938;DHT22;52756;52.826;6.214;2023-04-03T03:54:47;2.00;71.20
54938;DHT22;52756;52.826;6.214;2023-04-03T03:57:13;2.00;71.20
54938;DHT22;52756;52.826;6.214;2023-04-03T03:59:40;2.10;71.30
54938;DHT22;52756;52.826;6.214;2023-04-03T04:02:07;2.20;71.60
54938;DHT22;52756;52.826;6.214;2023-04-03T04:04:33;2.20;71.70
54938;DHT22;52756;52.826;6.214;2023-04-03T04:06:59;2.20;71.90
54938;DHT22;52756;52.826;6.214;2023-04-03T04:09:26;2.30;72.20
54938;DHT22;52756;52.826;6.214;2023-04-03T04:11:52;2.30;72.40
54938;DHT22;52756;52.826;6.214;2023-04-03T04:14:18;2.40;72.60
54938;DHT22;52756;52.826;6.214;2023-04-03T04:16:46;2.50;72.80
54938;DHT22;52756;52.826;6.214;2023-04-03T04:19:13;2.50;72.90
54938;DHT22;52756;52.826;6.214;2023-04-03T04:21:39;2.60;72.90
54938;DHT22;52756;52.826;6.214;2023-04-03T04:24:05;2.70;73.00
54938;DHT22;52756;52.826;6.214;2023-04-03T04:26:31;2.70;72.90
54938;DHT22;52756;52.826;6.214;2023-04-03T04:28:57;2.80;72.90
54938;DHT22;52756;52.826;6.214;2023-04-03T04:31:22;2.90;72.90
54938;DHT22;52756;52.826;6.214;2023-04-03T04:33:48;2.90;72.50
54938;DHT22;52756;52.826;6.214;2023-04-03T04:36:14;2.90;72.20
54938;DHT22;52756;52.826;6.214;2023-04-03T04:38:40;3.10;72.20
54938;DHT22;52756;52.826;6.214;2023-04-03T04:41:06;3.00;71.80
54938;DHT22;52756;52.826;6.214;2023-04-03T04:43:32;3.00;71.50
54938;DHT22;52756;52.826;6.214;2023-04-03T04:46:06;3.10;71.20
54938;DHT22;52756;52.826;6.214;2023-04-03T04:48:32;3.10;70.90
54938;DHT22;52756;52.826;6.214;2023-04-03T04:50:58;3.10;70.50
54938;DHT22;52756;52.826;6.214;2023-04-03T04:53:24;3.10;70.30
54938;DHT22;52756;52.826;6.214;2023-04-03T04:55:50;3.10;69.90
54938;DHT22;52756;52.826;6.214;2023-04-03T04:58:17;3.10;69.30
54938;DHT22;52756;52.826;6.214;2023-04-03T05:00:42;3.10;68.70
54938;DHT22;52756;52.826;6.214;2023-04-03T05:03:08;3.10;68.20
54938;DHT22;52756;52.826;6.214;2023-04-03T05:05:34;3.00;67.80
54938;DHT22;52756;52.826;6.214;2023-04-03T05:08:01;2.90;67.80
54938;DHT22;52756;52.826;6.214;2023-04-03T05:10:27;2.80;67.80
54938;DHT22;52756;52.826;6.214;2023-04-03T05:12:53;2.80;67.60
54938;DHT22;52756;52.826;6.214;2023-04-03T05:15:19;2.70;67.60
54938;DHT22;52756;52.826;6.214;2023-04-03T05:17:44;2.60;67.80
54938;DHT22;52756;52.826;6.214;2023-04-03T05:20:11;2.60;67.80
54938;DHT22;52756;52.826;6.214;2023-04-03T05:22:36;2.50;67.90
54938;DHT22;52756;52.826;6.214;2023-04-03T05:25:03;2.40;67.80
54938;DHT22;52756;52.826;6.214;2023-04-03T05:27:29;2.40;67.90
54938;DHT22;52756;52.826;6.214;2023-04-03T05:29:55;2.30;68.00
54938;DHT22;52756;52.826;6.214;2023-04-03T05:32:22;2.20;68.20
54938;DHT22;52756;52.826;6.214;2023-04-03T05:34:48;2.10;68.60
54938;DHT22;52756;52.826;6.214;2023-04-03T05:37:14;2.00;68.90
54938;DHT22;52756;52.826;6.214;2023-04-03T05:39:39;2.00;69.20
54938;DHT22;52756;52.826;6.214;2023-04-03T05:42:07;2.00;69.80
54938;DHT22;52756;52.826;6.214;2023-04-03T05:44:33;2.00;70.30
54938;DHT22;52756;52.826;6.214;2023-04-03T05:46:59;2.10;70.40
54938;DHT22;52756;52.826;6.214;2023-04-03T05:49:25;2.20;70.60
54938;DHT22;52756;52.826;6.214;2023-04-03T05:51:51;2.30;70.60
54938;DHT22;52756;52.826;6.214;2023-04-03T05:54:18;2.30;70.60
54938;DHT22;52756;52.826;6.214;2023-04-03T05:56:44;2.30;70.40
54938;DHT22;52756;52.826;6.214;2023-04-03T05:59:10;2.40;70.50
54938;DHT22;52756;52.826;6.214;2023-04-03T06:01:37;2.40;70.40
54938;DHT22;52756;52.826;6.214;2023-04-03T06:04:03;2.50;70.40
54938;DHT22;52756;52.826;6.214;2023-04-03T06:06:48;2.60;70.50
54938;DHT22;52756;52.826;6.214;2023-04-03T06:09:15;2.80;70.50
54938;DHT22;52756;52.826;6.214;2023-04-03T06:11:42;2.90;70.30
54938;DHT22;52756;52.826;6.214;2023-04-03T06:14:08;3.20;70.20
54938;DHT22;52756;52.826;6.214;2023-04-03T06:16:34;3.40;69.90
54938;DHT22;52756;52.826;6.214;2023-04-03T06:19:00;3.70;69.50
54938;DHT22;52756;52.826;6.214;2023-04-03T06:21:26;3.90;68.30
54938;DHT22;52756;52.826;6.214;2023-04-03T06:23:52;4.10;67.70
54938;DHT22;52756;52.826;6.214;2023-04-03T06:26:18;4.50;67.50
54938;DHT22;52756;52.826;6.214;2023-04-03T06:28:43;4.80;66.80
54938;DHT22;52756;52.826;6.214;2023-04-03T06:31:09;5.00;66.10
54938;DHT22;52756;52.826;6.214;2023-04-03T06:33:35;5.40;65.00
54938;DHT22;52756;52.826;6.214;2023-04-03T06:36:04;5.50;62.80
54938;DHT22;52756;52.826;6.214;2023-04-03T06:38:31;5.60;62.40
54938;DHT22;52756;52.826;6.214;2023-04-03T06:40:56;5.70;62.40
54938;DHT22;52756;52.826;6.214;2023-04-03T06:43:22;5.80;61.80
54938;DHT22;52756;52.826;6.214;2023-04-03T06:45:48;5.90;61.00
54938;DHT22;52756;52.826;6.214;2023-04-03T06:48:14;5.90;59.90
54938;DHT22;52756;52.826;6.214;2023-04-03T06:50:40;5.90;59.30
54938;DHT22;52756;52.826;6.214;2023-04-03T06:53:06;5.80;59.20
54938;DHT22;52756;52.826;6.214;2023-04-03T06:55:32;5.80;59.10
54938;DHT22;52756;52.826;6.214;2023-04-03T06:57:58;5.60;59.00
54938;DHT22;52756;52.826;6.214;2023-04-03T07:00:24;5.50;59.00
54938;DHT22;52756;52.826;6.214;2023-04-03T07:02:50;5.30;59.10
54938;DHT22;52756;52.826;6.214;2023-04-03T07:05:17;5.20;59.60
54938;DHT22;52756;52.826;6.214;2023-04-03T07:07:43;5.10;59.80
54938;DHT22;52756;52.826;6.214;2023-04-03T07:10:09;5.00;60.40
54938;DHT22;52756;52.826;6.214;2023-04-03T07:12:35;4.90;60.50
54938;DHT22;52756;52.826;6.214;2023-04-03T07:15:01;4.80;60.90
54938;DHT22;52756;52.826;6.214;2023-04-03T07:17:27;4.80;61.20
54938;DHT22;52756;52.826;6.214;2023-04-03T07:19:52;4.80;61.10
54938;DHT22;52756;52.826;6.214;2023-04-03T07:22:18;4.80;61.30
54938;DHT22;52756;52.826;6.214;2023-04-03T07:24:44;4.80;60.70
54938;DHT22;52756;52.826;6.214;2023-04-03T07:27:09;4.80;60.30
54938;DHT22;52756;52.826;6.214;2023-04-03T07:29:38;4.80;60.00
54938;DHT22;52756;52.826;6.214;2023-04-03T07:32:05;4.80;60.40
54938;DHT22;52756;52.826;6.214;2023-04-03T07:34:32;4.80;60.50
54938;DHT22;52756;52.826;6.214;2023-04-03T07:36:58;4.70;60.10
54938;DHT22;52756;52.826;6.214;2023-04-03T07:39:24;4.80;59.90
54938;DHT22;52756;52.826;6.214;2023-04-03T07:41:51;4.80;60.20
54938;DHT22;52756;52.826;6.214;2023-04-03T07:44:17;4.80;60.40
54938;DHT22;52756;52.826;6.214;2023-04-03T07:46:43;4.90;60.30
54938;DHT22;52756;52.826;6.214;2023-04-03T07:49:09;4.90;59.30
54938;DHT22;52756;52.826;6.214;2023-04-03T07:51:36;5.00;59.10
54938;DHT22;52756;52.826;6.214;2023-04-03T07:54:02;5.00;58.00
54938;DHT22;52756;52.826;6.214;2023-04-03T07:56:27;5.00;57.40
54938;DHT22;52756;52.826;6.214;2023-04-03T07:58:53;5.10;57.00
54938;DHT22;52756;52.826;6.214;2023-04-03T08:01:19;5.20;55.90
54938;DHT22;52756;52.826;6.214;2023-04-03T08:03:45;5.30;54.80
54938;DHT22;52756;52.826;6.214;2023-04-03T08:06:11;5.30;55.00
54938;DHT22;52756;52.826;6.214;2023-04-03T08:08:36;5.40;55.00
54938;DHT22;52756;52.826;6.214;2023-04-03T08:11:02;5.50;55.20
54938;DHT22;52756;52.826;6.214;2023-04-03T08:13:29;5.60;55.20
54938;DHT22;52756;52.826;6.214;2023-04-03T08:15:55;5.70;53.80
54938;DHT22;52756;52.826;6.214;2023-04-03T08:18:23;5.80;53.30
54938;DHT22;52756;52.826;6.214;2023-04-03T08:20:51;5.90;52.70
54938;DHT22;52756;52.826;6.214;2023-04-03T08:23:17;6.00;50.70
54938;DHT22;52756;52.826;6.214;2023-04-03T08:25:43;6.10;51.70
54938;DHT22;52756;52.826;6.214;2023-04-03T08:28:11;6.10;52.20
54938;DHT22;52756;52.826;6.214;2023-04-03T08:30:39;6.30;51.50
54938;DHT22;52756;52.826;6.214;2023-04-03T08:33:05;6.50;51.10
54938;DHT22;52756;52.826;6.214;2023-04-03T08:35:31;6.60;51.60
54938;DHT22;52756;52.826;6.214;2023-04-03T08:37:57;6.70;51.20
54938;DHT22;52756;52.826;6.214;2023-04-03T08:40:23;6.90;50.20
54938;DHT22;52756;52.826;6.214;2023-04-03T08:45:52;7.00;46.60
54938;DHT22;52756;52.826;6.214;2023-04-03T08:48:23;7.10;43.90
54938;DHT22;52756;52.826;6.214;2023-04-03T08:50:59;7.10;44.50
54938;DHT22;52756;52.826;6.214;2023-04-03T08:53:29;7.20;45.90
54938;DHT22;52756;52.826;6.214;2023-04-03T08:55:58;7.30;45.50
54938;DHT22;52756;52.826;6.214;2023-04-03T08:58:30;7.40;44.70
54938;DHT22;52756;52.826;6.214;2023-04-03T09:01:04;7.50;44.20
54938;DHT22;52756;52.826;6.214;2023-04-03T09:03:32;7.60;43.20
54938;DHT22;52756;52.826;6.214;2023-04-03T09:06:11;7.60;44.40
54938;DHT22;52756;52.826;6.214;2023-04-03T09:12:00;7.90;43.70
54938;DHT22;52756;52.826;6.214;2023-04-03T09:17:46;8.20;42.50
54938;DHT22;52756;52.826;6.214;2023-04-03T09:22:51;8.30;40.30
54938;DHT22;52756;52.826;6.214;2023-04-03T09:25:33;8.40;39.90
54938;DHT22;52756;52.826;6.214;2023-04-03T09:28:00;8.50;38.90
54938;DHT22;52756;52.826;6.214;2023-04-03T09:30:27;8.60;37.60
54938;DHT22;52756;52.826;6.214;2023-04-03T09:32:55;8.60;37.60
54938;DHT22;52756;52.826;6.214;2023-04-03T09:35:36;8.70;37.30
54938;DHT22;52756;52.826;6.214;2023-04-03T09:38:22;8.70;37.30
54938;DHT22;52756;52.826;6.214;2023-04-03T09:40:50;8.80;36.30
54938;DHT22;52756;52.826;6.214;2023-04-03T09:43:26;8.80;36.50
54938;DHT22;52756;52.826;6.214;2023-04-03T09:45:53;8.80;36.20
54938;DHT22;52756;52.826;6.214;2023-04-03T09:48:22;8.80;35.80
54938;DHT22;52756;52.826;6.214;2023-04-03T09:56:18;9.00;35.60
54938;DHT22;52756;52.826;6.214;2023-04-03T09:58:50;9.00;36.80
54938;DHT22;52756;52.826;6.214;2023-04-03T10:01:23;9.00;36.10
54938;DHT22;52756;52.826;6.214;2023-04-03T10:04:07;9.10;35.60
54938;DHT22;52756;52.826;6.214;2023-04-03T10:06:44;9.20;35.60
54938;DHT22;52756;52.826;6.214;2023-04-03T10:09:30;9.20;36.30
54938;DHT22;52756;52.826;6.214;2023-04-03T10:12:05;9.30;36.80
54938;DHT22;52756;52.826;6.214;2023-04-03T10:14:39;9.40;36.50
54938;DHT22;52756;52.826;6.214;2023-04-03T10:19:51;9.50;36.40
54938;DHT22;52756;52.826;6.214;2023-04-03T10:22:49;9.50;36.10
54938;DHT22;52756;52.826;6.214;2023-04-03T10:28:02;9.60;35.70
54938;DHT22;52756;52.826;6.214;2023-04-03T10:30:36;9.70;35.70
54938;DHT22;52756;52.826;6.214;2023-04-03T10:38:33;9.90;36.00
54938;DHT22;52756;52.826;6.214;2023-04-03T10:47:19;10.10;34.90
54938;DHT22;52756;52.826;6.214;2023-04-03T10:55:53;10.10;34.00
54938;DHT22;52756;52.826;6.214;2023-04-03T10:58:29;10.10;34.30
54938;DHT22;52756;52.826;6.214;2023-04-03T11:01:01;10.10;33.30
54938;DHT22;52756;52.826;6.214;2023-04-03T11:03:38;10.00;33.50
54938;DHT22;52756;52.826;6.214;2023-04-03T11:06:09;10.00;33.20
54938;DHT22;52756;52.826;6.214;2023-04-03T11:08:51;10.00;33.80
54938;DHT22;52756;52.826;6.214;2023-04-03T11:11:32;10.00;33.30
54938;DHT22;52756;52.826;6.214;2023-04-03T11:19:39;10.10;33.80
54938;DHT22;52756;52.826;6.214;2023-04-03T11:25:35;10.10;34.30
54938;DHT22;52756;52.826;6.214;2023-04-03T11:28:04;10.00;34.30
54938;DHT22;52756;52.826;6.214;2023-04-03T11:35:48;10.00;33.70
54938;DHT22;52756;52.826;6.214;2023-04-03T11:38:26;10.00;33.80
54938;DHT22;52756;52.826;6.214;2023-04-03T11:40:55;10.00;34.30
54938;DHT22;52756;52.826;6.214;2023-04-03T11:43:31;10.00;34.80
54938;DHT22;52756;52.826;6.214;2023-04-03T11:46:00;10.10;34.80
54938;DHT22;52756;52.826;6.214;2023-04-03T11:51:00;10.00;33.70
54938;DHT22;52756;52.826;6.214;2023-04-03T11:53:35;10.00;34.20
54938;DHT22;52756;52.826;6.214;2023-04-03T11:56:01;10.00;34.60
54938;DHT22;52756;52.826;6.214;2023-04-03T11:58:33;10.00;35.30
54938;DHT22;52756;52.826;6.214;2023-04-03T12:03:56;10.00;34.90
54938;DHT22;52756;52.826;6.214;2023-04-03T12:08:54;10.10;35.50
54938;DHT22;52756;52.826;6.214;2023-04-03T12:11:29;10.20;35.40
54938;DHT22;52756;52.826;6.214;2023-04-03T12:48:26;10.50;34.80
54938;DHT22;52756;52.826;6.214;2023-04-03T12:50:53;10.50;34.30
54938;DHT22;52756;52.826;6.214;2023-04-03T12:53:19;10.50;35.00
54938;DHT22;52756;52.826;6.214;2023-04-03T12:55:46;10.50;35.60
54938;DHT22;52756;52.826;6.214;2023-04-03T12:58:21;10.50;35.20
54938;DHT22;52756;52.826;6.214;2023-04-03T13:00:47;10.50;35.30
54938;DHT22;52756;52.826;6.214;2023-04-03T13:03:25;10.50;35.70
54938;DHT22;52756;52.826;6.214;2023-04-03T13:05:58;10.50;36.00
54938;DHT22;52756;52.826;6.214;2023-04-03T13:08:24;10.50;35.20
54938;DHT22;52756;52.826;6.214;2023-04-03T13:11:09;10.40;34.90
54938;DHT22;52756;52.826;6.214;2023-04-03T13:13:36;10.40;35.50
54938;DHT22;52756;52.826;6.214;2023-04-03T13:16:11;10.40;35.90
54938;DHT22;52756;52.826;6.214;2023-04-03T13:18:39;10.50;35.60
54938;DHT22;52756;52.826;6.214;2023-04-03T13:21:08;10.40;35.40
54938;DHT22;52756;52.826;6.214;2023-04-03T13:23:40;10.40;35.60
54938;DHT22;52756;52.826;6.214;2023-04-03T13:26:08;10.50;35.70
54938;DHT22;52756;52.826;6.214;2023-04-03T13:28:35;10.40;35.60
54938;DHT22;52756;52.826;6.214;2023-04-03T13:31:07;10.40;36.20
54938;DHT22;52756;52.826;6.214;2023-04-03T13:33:36;10.40;36.10
54938;DHT22;52756;52.826;6.214;2023-04-03T13:36:27;10.40;36.00
54938;DHT22;52756;52.826;6.214;2023-04-03T13:41:47;10.50;36.30
54938;DHT22;52756;52.826;6.214;2023-04-03T13:46:52;10.50;36.20
54938;DHT22;52756;52.826;6.214;2023-04-03T13:49:40;10.50;35.90
54938;DHT22;52756;52.826;6.214;2023-04-03T13:52:31;10.50;35.70
54938;DHT22;52756;52.826;6.214;2023-04-03T13:55:17;10.50;35.20
54938;DHT22;52756;52.826;6.214;2023-04-03T14:00:49;10.50;35.80
54938;DHT22;52756;52.826;6.214;2023-04-03T14:04:09;10.50;35.40
54938;DHT22;52756;52.826;6.214;2023-04-03T14:06:16;10.50;35.50
54938;DHT22;52756;52.826;6.214;2023-04-03T14:08:46;10.40;35.90
54938;DHT22;52756;52.826;6.214;2023-04-03T14:11:22;10.50;36.30
54938;DHT22;52756;52.826;6.214;2023-04-03T14:13:49;10.40;36.10
54938;DHT22;52756;52.826;6.214;2023-04-03T14:16:19;10.40;35.90
54938;DHT22;52756;52.826;6.214;2023-04-03T14:18:47;10.40;36.20
54938;DHT22;52756;52.826;6.214;2023-04-03T14:21:15;10.40;36.40
54938;DHT22;52756;52.826;6.214;2023-04-03T14:23:41;10.30;35.90
54938;DHT22;52756;52.826;6.214;2023-04-03T14:26:22;10.30;35.70
54938;DHT22;52756;52.826;6.214;2023-04-03T14:28:51;10.30;35.00
54938;DHT22;52756;52.826;6.214;2023-04-03T14:31:20;10.20;35.20
54938;DHT22;52756;52.826;6.214;2023-04-03T14:33:46;10.10;35.60
54938;DHT22;52756;52.826;6.214;2023-04-03T14:36:21;10.10;35.90
54938;DHT22;52756;52.826;6.214;2023-04-03T14:38:48;10.10;35.80
54938;DHT22;52756;52.826;6.214;2023-04-03T14:41:18;10.10;36.10
54938;DHT22;52756;52.826;6.214;2023-04-03T14:43:45;10.10;36.20
54938;DHT22;52756;52.826;6.214;2023-04-03T14:46:21;10.10;35.30
54938;DHT22;52756;52.826;6.214;2023-04-03T14:48:48;10.10;35.40
54938;DHT22;52756;52.826;6.214;2023-04-03T14:51:14;10.10;35.10
54938;DHT22;52756;52.826;6.214;2023-04-03T14:53:42;10.10;35.50
54938;DHT22;52756;52.826;6.214;2023-04-03T14:56:23;10.10;35.30
54938;DHT22;52756;52.826;6.214;2023-04-03T14:58:55;10.10;35.70
54938;DHT22;52756;52.826;6.214;2023-04-03T15:01:21;10.10;35.10
54938;DHT22;52756;52.826;6.214;2023-04-03T15:03:48;10.10;35.70
54938;DHT22;52756;52.826;6.214;2023-04-03T15:06:14;10.10;35.80
54938;DHT22;52756;52.826;6.214;2023-04-03T15:08:41;10.10;35.40
54938;DHT22;52756;52.826;6.214;2023-04-03T15:11:09;10.10;35.30
54938;DHT22;52756;52.826;6.214;2023-04-03T15:13:35;10.10;35.40
54938;DHT22;52756;52.826;6.214;2023-04-03T15:16:01;10.10;35.20
54938;DHT22;52756;52.826;6.214;2023-04-03T15:18:28;10.20;36.00
54938;DHT22;52756;52.826;6.214;2023-04-03T15:20:56;10.20;35.20
54938;DHT22;52756;52.826;6.214;2023-04-03T15:23:21;10.20;35.50
54938;DHT22;52756;52.826;6.214;2023-04-03T15:25:52;10.20;35.70
54938;DHT22;52756;52.826;6.214;2023-04-03T15:28:23;10.10;35.60
54938;DHT22;52756;52.826;6.214;2023-04-03T15:30:50;10.10;35.30
54938;DHT22;52756;52.826;6.214;2023-04-03T15:33:16;10.10;35.20
54938;DHT22;52756;52.826;6.214;2023-04-03T15:35:42;10.10;35.00
54938;DHT22;52756;52.826;6.214;2023-04-03T15:38:08;10.10;35.70
54938;DHT22;52756;52.826;6.214;2023-04-03T15:40:34;10.10;36.00
54938;DHT22;52756;52.826;6.214;2023-04-03T15:43:00;10.10;35.90
54938;DHT22;52756;52.826;6.214;2023-04-03T15:45:28;10.10;36.00
54938;DHT22;52756;52.826;6.214;2023-04-03T15:47:55;10.20;36.20
54938;DHT22;52756;52.826;6.214;2023-04-03T15:50:21;10.20;36.40
54938;DHT22;52756;52.826;6.214;2023-04-03T15:52:48;10.10;35.40
54938;DHT22;52756;52.826;6.214;2023-04-03T15:55:23;10.10;35.70
54938;DHT22;52756;52.826;6.214;2023-04-03T15:57:49;10.10;35.60
54938;DHT22;52756;52.826;6.214;2023-04-03T16:00:15;10.10;35.20
54938;DHT22;52756;52.826;6.214;2023-04-03T16:02:43;10.00;35.70
54938;DHT22;52756;52.826;6.214;2023-04-03T16:05:10;10.00;36.20
54938;DHT22;52756;52.826;6.214;2023-04-03T16:07:39;10.00;35.70
54938;DHT22;52756;52.826;6.214;2023-04-03T16:10:07;10.00;35.30
54938;DHT22;52756;52.826;6.214;2023-04-03T16:12:33;10.00;35.60
54938;DHT22;52756;52.826;6.214;2023-04-03T16:14:59;10.00;35.80
54938;DHT22;52756;52.826;6.214;2023-04-03T16:17:26;10.00;36.10
54938;DHT22;52756;52.826;6.214;2023-04-03T16:19:52;9.90;35.70
54938;DHT22;52756;52.826;6.214;2023-04-03T16:22:19;9.90;36.00
54938;DHT22;52756;52.826;6.214;2023-04-03T16:24:45;9.90;35.70
54938;DHT22;52756;52.826;6.214;2023-04-03T16:27:11;9.90;35.40
54938;DHT22;52756;52.826;6.214;2023-04-03T16:29:36;9.80;35.40
54938;DHT22;52756;52.826;6.214;2023-04-03T16:32:03;9.80;35.30
54938;DHT22;52756;52.826;6.214;2023-04-03T16:34:29;9.80;35.30
54938;DHT22;52756;52.826;6.214;2023-04-03T16:36:57;9.80;35.70
54938;DHT22;52756;52.826;6.214;2023-04-03T16:39:23;9.70;36.00
54938;DHT22;52756;52.826;6.214;2023-04-03T16:41:48;9.70;35.90
54938;DHT22;52756;52.826;6.214;2023-04-03T16:44:14;9.70;35.80
54938;DHT22;52756;52.826;6.214;2023-04-03T16:46:40;9.70;36.10
54938;DHT22;52756;52.826;6.214;2023-04-03T16:49:06;9.60;36.20
54938;DHT22;52756;52.826;6.214;2023-04-03T16:51:31;9.60;36.60
54938;DHT22;52756;52.826;6.214;2023-04-03T16:53:58;9.60;36.80
54938;DHT22;52756;52.826;6.214;2023-04-03T16:56:24;9.60;36.80
54938;DHT22;52756;52.826;6.214;2023-04-03T16:58:52;9.60;36.80
54938;DHT22;52756;52.826;6.214;2023-04-03T17:01:20;9.60;36.40
54938;DHT22;52756;52.826;6.214;2023-04-03T17:03:46;9.50;36.60
54938;DHT22;52756;52.826;6.214;2023-04-03T17:06:16;9.60;36.60
54938;DHT22;52756;52.826;6.214;2023-04-03T17:08:44;9.50;37.00
54938;DHT22;52756;52.826;6.214;2023-04-03T17:11:10;9.40;36.90
54938;DHT22;52756;52.826;6.214;2023-04-03T17:13:36;9.40;36.90
54938;DHT22;52756;52.826;6.214;2023-04-03T17:16:04;9.40;37.00
54938;DHT22;52756;52.826;6.214;2023-04-03T17:18:32;9.30;36.90
54938;DHT22;52756;52.826;6.214;2023-04-03T17:20:58;9.30;37.30
54938;DHT22;52756;52.826;6.214;2023-04-03T17:23:25;9.30;37.50
54938;DHT22;52756;52.826;6.214;2023-04-03T17:25:52;9.30;37.80
54938;DHT22;52756;52.826;6.214;2023-04-03T17:28:20;9.20;37.70
54938;DHT22;52756;52.826;6.214;2023-04-03T17:30:47;9.20;37.60
54938;DHT22;52756;52.826;6.214;2023-04-03T17:33:13;9.20;37.60
54938;DHT22;52756;52.826;6.214;2023-04-03T17:35:38;9.20;37.40
54938;DHT22;52756;52.826;6.214;2023-04-03T17:38:04;9.10;37.50
54938;DHT22;52756;52.826;6.214;2023-04-03T17:40:30;9.10;37.50